Time;durP1;ratioP1;P1;durP2;ratioP2;P2;SDS_P1;SDS_P2;PMS_P1;PMS_P2;Temp;Humidity;BMP_temperature;BMP_pressure;BME280_temperature;BME280_humidity;BME280_pressure;Samples;Min_cycle;Max_cycle;Signal;HPM_P1;HPM_P2
2023/11/17 00:00:17;;;;;;;6.77;3.53;;;;;;;8.52;100.00;95363.22;5036079;28;20208;-68
2023/11/17 00:02:43;;;;;;;6.83;3.30;;;;;;;8.32;100.00;95375.31;5036676;28;20734;-67
2023/11/17 00:05:10;;;;;;;4.33;2.57;;;;;;;8.19;100.00;95388.25;5036580;28;20607;-66
2023/11/17 00:07:37;;;;;;;4.10;2.23;;;;;;;8.05;100.00;95406.63;5037420;28;20209;-68
2023/11/17 00:10:05;;;;;;;4.60;2.23;;;;;;;8.09;100.00;95421.00;5036829;28;20201;-67
2023/11/17 00:12:32;;;;;;;5.30;2.70;;;;;;;8.18;100.00;95430.44;5036327;28;20279;-66
2023/11/17 00:14:58;;;;;;;5.40;2.53;;;;;;;8.34;100.00;95433.69;5036483;28;20291;-67
2023/11/17 00:17:25;;;;;;;4.77;2.37;;;;;;;8.27;100.00;95442.47;5036823;28;20205;-67
2023/11/17 00:19:51;;;;;;;5.47;2.60;;;;;;;8.35;100.00;95456.31;5036184;28;20690;-68
2023/11/17 00:22:18;;;;;;;4.97;2.40;;;;;;;8.21;100.00;95469.44;5035948;28;20621;-67
2023/11/17 00:24:44;;;;;;;4.37;2.23;;;;;;;8.00;100.00;95477.97;5036346;28;20225;-67
2023/11/17 00:27:12;;;;;;;2.00;1.10;;;;;;;8.07;100.00;95488.56;5035869;28;20233;-67
2023/11/17 00:29:39;;;;;;;1.37;0.97;;;;;;;8.04;100.00;95491.56;5036235;28;21035;-66
2023/11/17 00:32:06;;;;;;;0.90;0.70;;;;;;;7.79;100.00;95492.81;5035480;28;20212;-68
2023/11/17 00:34:33;;;;;;;0.70;0.70;;;;;;;7.59;100.00;95504.75;5035440;28;20385;-66
2023/11/17 00:37:03;;;;;;;0.70;0.70;;;;;;;7.66;100.00;95507.50;5037030;28;20228;-66
2023/11/17 00:39:30;;;;;;;1.63;0.60;;;;;;;7.55;100.00;95511.34;5036074;28;20201;-66
2023/11/17 00:41:56;;;;;;;0.80;0.50;;;;;;;7.16;100.00;95522.94;5035975;28;20207;-66
2023/11/17 00:44:24;;;;;;;0.63;0.60;;;;;;;7.66;100.00;95534.53;5036211;28;20224;-67
2023/11/17 00:46:49;;;;;;;0.87;0.60;;;;;;;7.02;100.00;95538.59;5036133;28;20209;-66
2023/11/17 00:49:16;;;;;;;0.57;0.50;;;;;;;7.39;100.00;95555.22;5036136;28;20201;-67
2023/11/17 00:51:43;;;;;;;0.50;0.50;;;;;;;7.11;100.00;95558.50;5036480;28;20201;-66
2023/11/17 00:54:09;;;;;;;0.50;0.43;;;;;;;7.12;100.00;95568.81;5035578;28;20225;-68
2023/11/17 00:56:35;;;;;;;0.50;0.50;;;;;;;7.13;100.00;95567.81;5035481;28;20216;-68
2023/11/17 00:59:03;;;;;;;0.50;0.50;;;;;;;6.82;100.00;95585.34;5036933;28;20197;-68
2023/11/17 01:01:31;;;;;;;0.40;0.40;;;;;;;7.02;100.00;95596.22;5035383;28;20209;-68
2023/11/17 01:03:57;;;;;;;0.60;0.60;;;;;;;7.18;100.00;95620.53;5035689;28;20224;-68
2023/11/17 01:06:24;;;;;;;1.03;0.67;;;;;;;7.09;100.00;95626.78;5036403;28;20221;-67
2023/11/17 01:08:50;;;;;;;0.40;0.40;;;;;;;6.92;100.00;95635.69;5036289;28;20205;-67
2023/11/17 01:11:17;;;;;;;0.43;0.43;;;;;;;7.02;100.00;95640.75;5035342;28;20216;-67
2023/11/17 01:13:44;;;;;;;0.43;0.43;;;;;;;7.18;100.00;95651.13;5036305;28;20233;-67
2023/11/17 01:16:10;;;;;;;0.60;0.60;;;;;;;7.17;100.00;95665.25;5035925;28;20209;-67
2023/11/17 01:18:38;;;;;;;0.50;0.50;;;;;;;7.45;100.00;95677.72;5035415;28;20201;-67
2023/11/17 01:21:06;;;;;;;0.40;0.40;;;;;;;7.07;100.00;95689.00;5035912;28;20646;-66
2023/11/17 01:23:33;;;;;;;0.50;0.50;;;;;;;6.69;100.00;95699.41;5035883;28;20200;-67
2023/11/17 01:25:59;;;;;;;0.50;0.50;;;;;;;6.66;100.00;95712.84;5035438;28;20216;-66
2023/11/17 01:28:25;;;;;;;0.40;0.40;;;;;;;6.78;100.00;95727.22;5035751;28;20201;-67
2023/11/17 01:30:52;;;;;;;0.40;0.40;;;;;;;6.58;100.00;95735.59;5035898;28;20455;-67
2023/11/17 01:33:18;;;;;;;0.50;0.40;;;;;;;6.59;100.00;95748.50;5039609;28;20228;-67
2023/11/17 01:35:46;;;;;;;1.33;0.50;;;;;;;6.49;100.00;95757.50;5039430;28;20229;-66
2023/11/17 01:38:13;;;;;;;0.33;0.33;;;;;;;6.50;100.00;95769.63;5039983;28;20204;-66
2023/11/17 01:40:39;;;;;;;1.63;0.50;;;;;;;6.60;100.00;95776.31;5039705;28;20204;-67
2023/11/17 01:43:06;;;;;;;0.60;0.50;;;;;;;6.46;100.00;95792.66;5039806;28;20584;-67
2023/11/17 01:45:33;;;;;;;0.50;0.50;;;;;;;6.80;100.00;95788.09;5039348;28;20236;-67
2023/11/17 01:48:00;;;;;;;0.70;0.70;;;;;;;6.79;100.00;95804.78;5038787;28;20621;-66
2023/11/17 01:50:28;;;;;;;0.60;0.50;;;;;;;6.61;100.00;95819.03;5039484;28;20205;-66
2023/11/17 01:52:56;;;;;;;0.30;0.30;;;;;;;6.58;100.00;95835.88;5039644;28;20570;-67
2023/11/17 01:55:24;;;;;;;0.50;0.50;;;;;;;6.45;100.00;95845.97;5038499;28;20979;-66
2023/11/17 01:57:50;;;;;;;1.10;0.43;;;;;;;6.50;100.00;95853.38;5039421;28;20293;-67
2023/11/17 02:00:19;;;;;;;0.63;0.63;;;;;;;6.63;100.00;95866.78;5039657;28;20216;-67
2023/11/17 02:02:48;;;;;;;0.47;0.47;;;;;;;6.63;100.00;95885.13;5039414;28;20232;-67
2023/11/17 02:05:20;;;;;;;0.67;0.60;;;;;;;6.71;100.00;95883.34;5038877;28;20221;-67
2023/11/17 02:08:00;;;;;;;0.70;0.47;;;;;;;6.66;100.00;95890.88;5039549;28;20789;-67
2023/11/17 02:10:36;;;;;;;0.40;0.40;;;;;;;6.76;100.00;95900.19;5038654;28;20211;-66
2023/11/17 02:13:10;;;;;;;0.60;0.60;;;;;;;6.59;100.00;95909.97;5038717;28;20200;-67
2023/11/17 02:15:40;;;;;;;0.57;0.50;;;;;;;6.54;100.00;95923.53;5039008;28;20225;-67
2023/11/17 02:18:10;;;;;;;0.40;0.40;;;;;;;6.70;100.00;95928.81;5038307;28;20291;-67
2023/11/17 02:20:38;;;;;;;0.33;0.33;;;;;;;6.37;100.00;95929.72;5038238;28;20316;-67
2023/11/17 02:23:10;;;;;;;0.57;0.50;;;;;;;6.48;100.00;95947.75;5039163;28;20211;-67
2023/11/17 02:25:50;;;;;;;0.60;0.50;;;;;;;6.81;100.00;95955.53;5037924;28;21491;-67
2023/11/17 02:28:27;;;;;;;0.60;0.60;;;;;;;6.45;100.00;95953.28;5038538;28;20212;-67
2023/11/17 02:30:56;;;;;;;0.50;0.47;;;;;;;6.33;100.00;95962.41;5038843;28;21272;-67
2023/11/17 02:33:24;;;;;;;0.60;0.60;;;;;;;6.43;100.00;95968.34;5038202;28;20232;-68
2023/11/17 02:35:55;;;;;;;0.60;0.60;;;;;;;6.28;100.00;95975.16;5038509;28;20200;-67
2023/11/17 02:38:21;;;;;;;0.60;0.60;;;;;;;6.26;100.00;95986.75;5038788;28;20214;-68
2023/11/17 02:40:52;;;;;;;0.87;0.57;;;;;;;6.32;100.00;95981.69;5038887;28;20254;-66
2023/11/17 02:43:22;;;;;;;0.73;0.60;;;;;;;6.31;100.00;95997.56;5038114;28;20209;-68
2023/11/17 02:45:52;;;;;;;0.80;0.60;;;;;;;6.53;100.00;96000.44;5038240;28;20251;-67
2023/11/17 02:48:22;;;;;;;3.40;0.70;;;;;;;6.60;100.00;96011.09;5038406;28;20703;-68
2023/11/17 02:51:03;;;;;;;0.60;0.60;;;;;;;6.46;100.00;96020.34;5037800;28;20634;-67
2023/11/17 02:53:31;;;;;;;0.60;0.50;;;;;;;6.43;100.00;96025.06;5038054;28;20311;-67
2023/11/17 02:56:00;;;;;;;0.63;0.63;;;;;;;6.58;100.00;96034.81;5038164;28;20279;-68
2023/11/17 02:58:28;;;;;;;0.70;0.70;;;;;;;6.45;100.00;96044.88;5037742;28;20263;-68
2023/11/17 03:00:56;;;;;;;0.50;0.50;;;;;;;6.36;100.00;96051.06;5038346;28;20198;-67
2023/11/17 03:03:24;;;;;;;0.50;0.40;;;;;;;6.45;100.00;96055.34;5037749;28;20205;-68
2023/11/17 03:05:57;;;;;;;3.43;0.60;;;;;;;6.44;100.00;96063.38;5037344;28;20209;-67
2023/11/17 03:08:24;;;;;;;0.60;0.60;;;;;;;6.47;100.00;96070.94;5038396;28;20213;-66
2023/11/17 03:10:51;;;;;;;0.50;0.50;;;;;;;6.50;100.00;96074.03;5038525;28;20202;-66
2023/11/17 03:13:17;;;;;;;0.70;0.60;;;;;;;6.56;100.00;96081.25;5038128;28;20213;-66
2023/11/17 03:15:44;;;;;;;0.83;0.77;;;;;;;6.52;100.00;96085.19;5036581;28;20221;-68
2023/11/17 03:18:11;;;;;;;0.73;0.73;;;;;;;6.43;100.00;96093.97;5036289;28;20209;-66
2023/11/17 03:20:38;;;;;;;0.80;0.60;;;;;;;6.52;100.00;96097.44;5037796;28;20254;-66
2023/11/17 03:23:04;;;;;;;0.50;0.50;;;;;;;6.46;100.00;96104.09;5037799;28;20404;-67
2023/11/17 03:25:30;;;;;;;0.40;0.40;;;;;;;6.55;100.00;96103.19;5037518;28;20221;-67
2023/11/17 03:27:57;;;;;;;0.63;0.63;;;;;;;6.44;100.00;96108.69;5038059;28;20706;-66
2023/11/17 03:30:23;;;;;;;0.73;0.50;;;;;;;6.55;100.00;96100.56;5037261;28;20205;-68
2023/11/17 03:32:52;;;;;;;0.60;0.60;;;;;;;6.61;100.00;96110.41;5037374;28;20202;-67
2023/11/17 03:35:20;;;;;;;0.40;0.40;;;;;;;6.49;100.00;96114.28;5037282;28;20711;-66
2023/11/17 03:37:50;;;;;;;0.80;0.53;;;;;;;6.57;100.00;96116.94;5037640;28;20201;-66
2023/11/17 03:40:17;;;;;;;1.00;0.50;;;;;;;6.68;100.00;96127.13;5036995;28;20233;-66
2023/11/17 03:42:44;;;;;;;0.40;0.40;;;;;;;6.51;100.00;96125.41;5037509;28;20205;-68
2023/11/17 03:45:15;;;;;;;0.50;0.50;;;;;;;6.40;100.00;96136.16;5037519;28;20217;-67
2023/11/17 03:47:43;;;;;;;0.30;0.30;;;;;;;6.59;100.00;96141.16;5037494;28;20205;-67
2023/11/17 03:50:13;;;;;;;0.50;0.50;;;;;;;6.59;100.00;96141.16;5037792;28;20206;-67
2023/11/17 03:52:39;;;;;;;0.30;0.30;;;;;;;6.60;100.00;96150.66;5036959;28;20205;-67
2023/11/17 03:55:11;;;;;;;0.40;0.40;;;;;;;6.70;100.00;96141.72;5035104;28;20236;-67
2023/11/17 03:57:37;;;;;;;0.37;0.37;;;;;;;6.61;100.00;96149.69;5037155;28;20201;-68
2023/11/17 04:00:05;;;;;;;0.40;0.33;;;;;;;6.64;100.00;96144.13;5037405;28;20197;-68
2023/11/17 04:02:32;;;;;;;0.33;0.30;;;;;;;6.58;100.00;96152.63;5036592;28;20205;-67
2023/11/17 04:04:58;;;;;;;0.43;0.40;;;;;;;6.34;100.00;96156.84;5035613;28;20220;-67
2023/11/17 04:07:25;;;;;;;0.30;0.30;;;;;;;6.29;100.00;96154.72;5037359;28;20205;-67
2023/11/17 04:09:51;;;;;;;0.43;0.40;;;;;;;6.28;100.00;96152.25;5036830;28;20644;-67
2023/11/17 04:12:19;;;;;;;0.50;0.47;;;;;;;6.50;100.00;96160.41;5036530;28;20212;-66
2023/11/17 04:14:46;;;;;;;0.40;0.40;;;;;;;6.38;100.00;96164.25;5036175;28;20232;-66
2023/11/17 04:17:13;;;;;;;0.40;0.40;;;;;;;6.47;100.00;96171.19;5036977;28;20210;-68
2023/11/17 04:19:40;;;;;;;0.40;0.40;;;;;;;6.48;100.00;96174.63;5036084;28;20587;-66
2023/11/17 04:22:07;;;;;;;0.60;0.60;;;;;;;6.65;100.00;96174.56;5036655;28;20250;-68
2023/11/17 04:24:34;;;;;;;0.40;0.40;;;;;;;6.49;100.00;96181.50;5036793;28;20223;-66
2023/11/17 04:27:01;;;;;;;0.50;0.50;;;;;;;6.45;100.00;96188.81;5035744;28;20572;-67
2023/11/17 04:29:30;;;;;;;1.80;0.40;;;;;;;6.74;100.00;96184.13;5036520;28;20209;-68
2023/11/17 04:31:57;;;;;;;0.40;0.40;;;;;;;6.58;100.00;96191.88;5035650;28;20201;-68
2023/11/17 04:34:24;;;;;;;0.47;0.40;;;;;;;6.56;100.00;96188.59;5035160;28;20227;-67
2023/11/17 04:36:50;;;;;;;0.50;0.50;;;;;;;6.62;100.00;96190.59;5036288;28;20197;-68
2023/11/17 04:39:19;;;;;;;0.40;0.40;;;;;;;6.58;100.00;96191.06;5036772;28;21196;-67
2023/11/17 04:41:47;;;;;;;0.50;0.50;;;;;;;6.74;100.00;96194.59;5036164;28;20201;-68
2023/11/17 04:44:14;;;;;;;0.67;0.67;;;;;;;6.78;100.00;96198.53;5035772;28;20217;-68
2023/11/17 04:46:42;;;;;;;0.40;0.40;;;;;;;7.05;100.00;96191.34;5036853;28;20587;-67
2023/11/17 04:49:09;;;;;;;1.10;0.43;;;;;;;6.72;100.00;96197.38;5035713;28;20200;-67
2023/11/17 04:51:35;;;;;;;0.60;0.60;;;;;;;6.89;100.00;96195.66;5036352;28;20212;-68
2023/11/17 04:54:02;;;;;;;0.50;0.50;;;;;;;6.98;100.00;96198.16;5035334;28;20221;-67
2023/11/17 04:56:30;;;;;;;0.47;0.47;;;;;;;6.63;100.00;96207.94;5035909;28;20205;-68
2023/11/17 04:58:56;;;;;;;0.50;0.50;;;;;;;6.83;100.00;96206.75;5036077;28;20208;-67
2023/11/17 05:01:23;;;;;;;0.50;0.47;;;;;;;6.77;100.00;96207.38;5036171;28;20201;-66
2023/11/17 05:03:51;;;;;;;0.93;0.60;;;;;;;6.82;100.00;96215.59;5035731;28;21161;-66
2023/11/17 05:06:22;;;;;;;0.50;0.50;;;;;;;6.71;100.00;96216.66;5034947;28;20224;-68
2023/11/17 05:08:49;;;;;;;0.70;0.50;;;;;;;6.89;100.00;96227.09;5036059;28;20644;-68
2023/11/17 05:11:16;;;;;;;0.40;0.40;;;;;;;6.66;100.00;96225.97;5035890;28;20201;-66
2023/11/17 05:13:43;;;;;;;2.47;0.80;;;;;;;6.82;100.00;96226.91;5035699;28;20229;-68
2023/11/17 05:16:12;;;;;;;0.60;0.40;;;;;;;6.81;100.00;96237.50;5035243;28;20225;-67
2023/11/17 05:18:38;;;;;;;0.50;0.50;;;;;;;6.90;100.00;96234.78;5035340;28;20271;-67
2023/11/17 05:21:06;;;;;;;0.60;0.50;;;;;;;7.01;100.00;96231.91;5036446;28;20197;-67
2023/11/17 05:23:34;;;;;;;0.60;0.60;;;;;;;6.83;100.00;96233.75;5035346;28;20201;-68
2023/11/17 05:26:01;;;;;;;1.27;0.90;;;;;;;6.67;100.00;96238.09;5035113;28;20228;-66
2023/11/17 05:28:28;;;;;;;0.40;0.40;;;;;;;6.62;100.00;96240.34;5034721;28;20753;-67
2023/11/17 05:30:55;;;;;;;0.67;0.50;;;;;;;6.66;100.00;96239.88;5035188;28;20201;-66
2023/11/17 05:33:22;;;;;;;0.40;0.40;;;;;;;6.53;100.00;96254.34;5035118;28;20923;-66
2023/11/17 05:35:48;;;;;;;0.53;0.53;;;;;;;6.74;100.00;96253.00;5035231;28;20227;-66
2023/11/17 05:38:16;;;;;;;0.50;0.50;;;;;;;6.99;100.00;96249.59;5036239;28;20208;-66
2023/11/17 05:40:44;;;;;;;0.77;0.60;;;;;;;6.76;100.00;96247.66;5035250;28;20208;-66
2023/11/17 05:43:12;;;;;;;0.70;0.70;;;;;;;7.04;100.00;96256.97;5035777;28;20201;-66
2023/11/17 05:45:39;;;;;;;0.77;0.60;;;;;;;7.07;100.00;96254.06;5034659;28;20228;-65
2023/11/17 05:48:06;;;;;;;1.80;1.10;;;;;;;7.18;100.00;96257.22;5035933;28;20201;-66
2023/11/17 05:50:33;;;;;;;1.13;1.03;;;;;;;7.10;100.00;96253.72;5033970;28;20659;-68
2023/11/17 05:53:00;;;;;;;1.40;0.90;;;;;;;6.95;100.00;96255.28;5036117;28;20205;-67
2023/11/17 05:55:28;;;;;;;1.33;1.07;;;;;;;6.92;100.00;96263.44;5034992;28;20643;-66
2023/11/17 05:57:55;;;;;;;2.37;1.30;;;;;;;6.62;100.00;96276.16;5035051;28;20198;-68
2023/11/17 06:00:21;;;;;;;1.47;1.20;;;;;;;6.49;100.00;96265.25;5035525;28;20663;-67
2023/11/17 06:02:48;;;;;;;2.27;1.23;;;;;;;6.58;100.00;96269.59;5035866;28;20205;-66
2023/11/17 06:05:14;;;;;;;1.50;1.20;;;;;;;6.57;100.00;96268.78;5034455;28;20228;-68
2023/11/17 06:07:41;;;;;;;2.60;1.53;;;;;;;6.54;100.00;96274.28;5035310;28;20205;-66
2023/11/17 06:10:09;;;;;;;2.83;1.47;;;;;;;6.76;100.00;96268.59;5035479;28;20207;-68
2023/11/17 06:12:37;;;;;;;2.33;1.20;;;;;;;6.66;100.00;96262.63;5034926;28;20205;-67
2023/11/17 06:15:04;;;;;;;2.60;1.50;;;;;;;6.63;100.00;96268.16;5034692;28;20232;-67
2023/11/17 06:17:30;;;;;;;2.73;1.47;;;;;;;6.70;100.00;96269.19;5035543;28;20206;-67
2023/11/17 06:19:58;;;;;;;2.07;1.33;;;;;;;6.64;100.00;96285.50;5037985;28;20201;-67
2023/11/17 06:22:24;;;;;;;3.03;1.67;;;;;;;6.72;100.00;96275.94;5038676;28;20210;-67
2023/11/17 06:24:50;;;;;;;2.83;1.70;;;;;;;6.76;100.00;96274.63;5038104;28;21065;-67
2023/11/17 06:27:17;;;;;;;2.87;1.60;;;;;;;6.61;100.00;96280.59;5039047;28;20210;-67
2023/11/17 06:29:45;;;;;;;6.67;1.90;;;;;;;6.86;100.00;96282.38;5038459;28;20212;-66
2023/11/17 06:32:11;;;;;;;4.23;2.07;;;;;;;6.49;100.00;96297.50;5039422;28;20292;-67
2023/11/17 06:34:38;;;;;;;5.20;1.90;;;;;;;6.68;100.00;96289.47;5038459;28;20228;-67
2023/11/17 06:37:06;;;;;;;5.43;2.27;;;;;;;6.58;100.00;96301.84;5038106;28;20671;-67
2023/11/17 06:39:33;;;;;;;4.77;1.87;;;;;;;6.65;100.00;96296.81;5038248;28;20205;-67
2023/11/17 06:41:59;;;;;;;3.33;2.13;;;;;;;6.63;100.00;96299.56;5038703;28;20227;-67
2023/11/17 06:44:26;;;;;;;2.70;1.50;;;;;;;6.65;100.00;96308.09;5037916;28;20225;-67
2023/11/17 06:46:55;;;;;;;2.27;1.47;;;;;;;6.87;100.00;96307.63;5037842;28;20581;-67
2023/11/17 06:49:24;;;;;;;3.13;1.67;;;;;;;6.53;100.00;96311.94;5038589;28;20212;-67
2023/11/17 06:51:51;;;;;;;1.73;1.30;;;;;;;6.57;100.00;96318.50;5037163;28;20213;-67
2023/11/17 06:54:21;;;;;;;3.73;2.17;;;;;;;6.54;100.00;96315.38;5037587;28;20733;-67
2023/11/17 06:56:49;;;;;;;2.73;2.20;;;;;;;6.41;100.00;96317.53;5038726;28;20213;-67
2023/11/17 06:59:17;;;;;;;2.83;1.90;;;;;;;6.62;100.00;96325.91;5038306;28;20209;-67
2023/11/17 07:01:44;;;;;;;3.27;2.00;;;;;;;6.68;100.00;96334.81;5038085;28;20205;-67
2023/11/17 07:04:12;;;;;;;3.67;1.90;;;;;;;6.97;100.00;96332.72;5037925;28;21113;-67
2023/11/17 07:06:39;;;;;;;2.43;1.57;;;;;;;6.68;100.00;96336.59;5037398;28;20300;-67
2023/11/17 07:09:15;;;;;;;2.67;1.37;;;;;;;6.59;100.00;96344.53;5037929;28;20201;-66
2023/11/17 07:11:42;;;;;;;2.17;1.37;;;;;;;6.64;100.00;96347.53;5038254;28;20208;-66
2023/11/17 07:14:08;;;;;;;4.57;1.50;;;;;;;6.59;100.00;96344.53;5037838;28;20731;-66
2023/11/17 07:16:35;;;;;;;2.73;1.50;;;;;;;6.67;100.00;96354.09;5037177;28;21270;-66
2023/11/17 07:19:02;;;;;;;2.13;1.43;;;;;;;6.64;100.00;96355.38;5038154;28;20204;-66
2023/11/17 07:21:29;;;;;;;3.57;1.30;;;;;;;6.83;100.00;96363.91;5037605;28;20209;-67
2023/11/17 07:23:58;;;;;;;2.83;1.40;;;;;;;6.69;100.00;96359.19;5037421;28;20221;-67
2023/11/17 07:26:25;;;;;;;2.53;1.40;;;;;;;6.85;100.00;96362.78;5037294;28;20587;-67
2023/11/17 07:28:51;;;;;;;2.17;1.40;;;;;;;7.06;100.00;96360.63;5036970;28;20213;-67
2023/11/17 07:31:18;;;;;;;2.87;1.67;;;;;;;6.85;100.00;96370.63;5037414;28;20212;-67
2023/11/17 07:33:45;;;;;;;3.73;1.27;;;;;;;6.83;100.00;96379.59;5036960;28;20233;-65
2023/11/17 07:36:15;;;;;;;1.87;1.33;;;;;;;6.85;100.00;96380.28;5037901;28;20645;-67
2023/11/17 07:38:51;;;;;;;2.50;1.10;;;;;;;6.75;100.00;96385.59;5037547;28;20247;-66
2023/11/17 07:41:18;;;;;;;1.77;1.50;;;;;;;6.91;100.00;96372.66;5037117;28;20205;-66
2023/11/17 07:43:44;;;;;;;3.67;2.07;;;;;;;7.07;100.00;96380.63;5037057;28;21077;-67
2023/11/17 07:46:11;;;;;;;1.30;1.20;;;;;;;7.13;100.00;96379.19;5038142;28;20197;-68
2023/11/17 07:48:37;;;;;;;5.07;2.33;;;;;;;7.22;100.00;96379.09;5036542;28;20201;-66
2023/11/17 07:51:04;;;;;;;1.50;1.10;;;;;;;7.13;100.00;96389.66;5036823;28;20200;-66
2023/11/17 07:53:31;;;;;;;2.80;0.90;;;;;;;6.87;100.00;96389.66;5037175;28;20205;-68
2023/11/17 07:55:59;;;;;;;1.10;1.00;;;;;;;7.20;100.00;96388.09;5035911;28;20220;-67
2023/11/17 07:58:26;;;;;;;2.17;1.37;;;;;;;7.24;100.00;96395.47;5037085;28;20394;-67
2023/11/17 08:00:54;;;;;;;1.00;0.80;;;;;;;7.02;100.00;96397.78;5036348;28;20244;-65
2023/11/17 08:03:22;;;;;;;2.53;1.00;;;;;;;7.00;100.00;96400.56;5036507;28;20216;-67
2023/11/17 08:05:49;;;;;;;1.63;0.90;;;;;;;6.79;100.00;96399.22;5035576;28;20295;-67
2023/11/17 08:08:16;;;;;;;2.40;0.97;;;;;;;6.88;100.00;96412.22;5036782;28;20458;-66
2023/11/17 08:10:43;;;;;;;1.10;0.90;;;;;;;6.98;100.00;96409.53;5036102;28;20308;-67
2023/11/17 08:13:11;;;;;;;2.47;1.00;;;;;;;7.19;100.00;96410.84;5035874;28;20698;-67
2023/11/17 08:15:38;;;;;;;2.87;0.93;;;;;;;6.99;100.00;96421.69;5036533;28;20497;-68
2023/11/17 08:18:05;;;;;;;1.40;0.97;;;;;;;7.03;100.00;96423.81;5036538;28;20212;-67
2023/11/17 08:20:32;;;;;;;1.10;0.87;;;;;;;6.96;100.00;96421.94;5036808;28;20209;-65
2023/11/17 08:22:59;;;;;;;1.53;1.10;;;;;;;7.30;100.00;96426.34;5035584;28;20358;-66
2023/11/17 08:25:27;;;;;;;2.23;1.00;;;;;;;7.30;100.00;96428.94;5036449;28;20225;-67
2023/11/17 08:27:53;;;;;;;3.73;1.47;;;;;;;7.28;100.00;96426.50;5035144;28;20201;-67
2023/11/17 08:30:21;;;;;;;1.57;1.10;;;;;;;7.47;100.00;96428.94;5036600;28;20205;-66
2023/11/17 08:32:48;;;;;;;1.97;1.07;;;;;;;7.20;100.00;96435.25;5035811;28;20212;-67
2023/11/17 08:35:14;;;;;;;1.67;1.00;;;;;;;7.46;100.00;96435.16;5035783;28;20229;-66
2023/11/17 08:37:41;;;;;;;1.63;1.00;;;;;;;7.30;100.00;96445.50;5035405;28;20209;-66
2023/11/17 08:40:09;;;;;;;5.93;2.10;;;;;;;7.28;100.00;96452.69;5036312;28;20203;-65
2023/11/17 08:42:36;;;;;;;1.57;0.80;;;;;;;7.27;100.00;96450.25;5035271;28;20700;-67
2023/11/17 08:45:07;;;;;;;1.23;1.13;;;;;;;7.22;100.00;96449.03;5035311;28;20221;-68
2023/11/17 08:47:36;;;;;;;1.30;0.90;;;;;;;7.65;100.00;96450.69;5037050;28;20607;-68
2023/11/17 08:50:03;;;;;;;3.23;1.30;;;;;;;7.54;100.00;96447.50;5035546;28;20204;-67
2023/11/17 08:52:34;;;;;;;1.50;1.20;;;;;;;7.48;100.00;96456.78;5035777;28;20588;-65
2023/11/17 08:55:01;;;;;;;3.33;1.60;;;;;;;7.52;100.00;96452.91;5035320;28;20226;-66
2023/11/17 08:57:29;;;;;;;13.47;4.57;;;;;;;7.54;100.00;96464.03;5035351;28;20300;-65
2023/11/17 08:59:56;;;;;;;4.33;2.00;;;;;;;7.35;100.00;96472.06;5035600;28;20220;-66
2023/11/17 09:02:22;;;;;;;2.80;1.77;;;;;;;7.18;100.00;96468.66;5036013;28;20201;-67
2023/11/17 09:04:52;;;;;;;5.10;2.97;;;;;;;7.37;100.00;96464.09;5034511;28;20225;-67
2023/11/17 09:07:19;;;;;;;6.03;3.10;;;;;;;7.30;100.00;96463.03;5035196;28;20307;-66
2023/11/17 09:09:45;;;;;;;5.33;2.70;;;;;;;7.21;100.00;96473.59;5035946;28;20205;-66
2023/11/17 09:12:13;;;;;;;1.53;1.20;;;;;;;7.31;100.00;96475.16;5035051;28;20207;-66
2023/11/17 09:14:40;;;;;;;2.50;1.10;;;;;;;7.27;100.00;96484.31;5034948;28;20235;-67
2023/11/17 09:17:07;;;;;;;4.13;1.33;;;;;;;7.30;100.00;96474.31;5035517;28;20256;-67
2023/11/17 09:19:35;;;;;;;4.47;2.40;;;;;;;7.48;100.00;96480.38;5036574;28;20227;-67
2023/11/17 09:22:04;;;;;;;3.67;2.10;;;;;;;7.61;100.00;96478.19;5035332;28;20209;-65
2023/11/17 09:24:31;;;;;;;3.03;1.90;;;;;;;7.53;100.00;96485.97;5035583;28;20225;-66
2023/11/17 09:26:57;;;;;;;1.30;1.10;;;;;;;7.32;100.00;96482.88;5036008;28;20201;-65
2023/11/17 09:29:25;;;;;;;5.93;1.80;;;;;;;7.21;100.00;96476.22;5035757;28;20581;-65
2023/11/17 09:31:52;;;;;;;3.03;1.73;;;;;;;7.40;100.00;96490.78;5034217;28;20584;-67
2023/11/17 09:34:18;;;;;;;1.53;1.40;;;;;;;7.44;100.00;96486.09;5035102;28;20225;-66
2023/11/17 09:36:46;;;;;;;1.63;1.03;;;;;;;7.26;100.00;96485.28;5035557;28;20282;-66
2023/11/17 09:39:15;;;;;;;1.67;1.03;;;;;;;7.19;100.00;96486.03;5035124;28;20212;-66
2023/11/17 09:41:45;;;;;;;2.37;1.40;;;;;;;7.36;100.00;96483.41;5035387;28;20216;-65
2023/11/17 09:44:14;;;;;;;3.17;2.13;;;;;;;7.58;100.00;96490.78;5034535;28;20606;-66
2023/11/17 09:46:46;;;;;;;1.53;1.07;;;;;;;7.36;100.00;96489.47;5035353;28;20198;-66
2023/11/17 09:49:14;;;;;;;3.80;1.40;;;;;;;7.18;100.00;96487.00;5034786;28;20216;-66
2023/11/17 09:51:42;;;;;;;2.37;1.50;;;;;;;7.09;100.00;96493.97;5035286;28;20262;-65
2023/11/17 09:54:13;;;;;;;2.77;1.30;;;;;;;7.14;100.00;96488.28;5036176;28;20282;-65
2023/11/17 09:56:43;;;;;;;1.03;0.93;;;;;;;7.23;100.00;96484.75;5039938;28;20228;-66
2023/11/17 09:59:10;;;;;;;3.37;1.50;;;;;;;7.37;100.00;96487.69;5038405;28;20894;-66
2023/11/17 10:01:37;;;;;;;2.00;1.50;;;;;;;7.18;100.00;96487.00;5038754;28;20205;-65
2023/11/17 10:04:05;;;;;;;3.10;1.40;;;;;;;7.13;100.00;96487.47;5039141;28;20221;-66
2023/11/17 10:06:33;;;;;;;5.57;2.73;;;;;;;7.37;100.00;96496.34;5039047;28;20236;-66
2023/11/17 10:09:02;;;;;;;4.90;2.20;;;;;;;7.22;100.00;96496.19;5038470;28;20207;-65
2023/11/17 10:11:30;;;;;;;3.40;1.47;;;;;;;7.31;100.00;96490.88;5038933;28;20263;-65
2023/11/17 10:14:00;;;;;;;3.57;2.40;;;;;;;7.32;100.00;96503.03;5039402;28;20225;-66
2023/11/17 10:16:28;;;;;;;12.03;4.00;;;;;;;7.25;100.00;96501.16;5038700;28;20229;-66
2023/11/17 10:18:57;;;;;;;8.57;3.40;;;;;;;7.18;100.00;96500.09;5039135;28;20208;-66
2023/11/17 10:21:23;;;;;;;2.10;1.53;;;;;;;7.10;100.00;96502.66;5038727;28;20637;-66
2023/11/17 10:23:53;;;;;;;2.30;1.57;;;;;;;7.23;100.00;96503.09;5038402;28;20225;-65
2023/11/17 10:26:22;;;;;;;4.50;1.80;;;;;;;7.19;100.00;96494.69;5038216;28;20261;-66
2023/11/17 10:28:50;;;;;;;4.87;1.60;;;;;;;7.32;100.00;96498.59;5038405;28;20201;-65
2023/11/17 10:31:18;;;;;;;2.27;1.60;;;;;;;7.31;100.00;96485.66;5038862;28;20324;-66
2023/11/17 10:33:45;;;;;;;2.20;1.30;;;;;;;7.16;100.00;96496.81;5038079;28;20225;-65
2023/11/17 10:36:15;;;;;;;3.30;1.80;;;;;;;7.40;100.00;96496.03;5038088;28;20221;-66
2023/11/17 10:38:45;;;;;;;5.13;1.90;;;;;;;7.36;100.00;96494.69;5038965;28;20597;-65
2023/11/17 10:41:14;;;;;;;3.33;1.40;;;;;;;7.24;100.00;96494.25;5038481;28;20344;-66
2023/11/17 10:43:49;;;;;;;1.93;1.70;;;;;;;7.48;100.00;96509.22;5038652;28;20227;-65
2023/11/17 10:46:19;;;;;;;2.27;1.60;;;;;;;7.26;100.00;96495.75;5036532;28;20205;-66
2023/11/17 10:48:47;;;;;;;2.53;1.70;;;;;;;7.34;100.00;96501.91;5037681;28;20227;-66
2023/11/17 10:51:17;;;;;;;4.10;2.40;;;;;;;7.26;100.00;96496.56;5037506;28;20263;-66
2023/11/17 10:53:44;;;;;;;3.27;1.80;;;;;;;7.35;100.00;96493.03;5038788;28;20236;-66
2023/11/17 10:56:23;;;;;;;2.23;1.40;;;;;;;7.43;100.00;96501.00;5036939;28;20221;-66
2023/11/17 10:58:52;;;;;;;2.20;1.57;;;;;;;7.63;100.00;96507.69;5038556;28;20215;-66
2023/11/17 11:01:19;;;;;;;2.80;1.70;;;;;;;7.30;100.00;96497.91;5037941;28;20869;-66
2023/11/17 11:03:48;;;;;;;1.70;1.40;;;;;;;7.36;100.00;96486.03;5037886;28;20232;-65
2023/11/17 11:06:15;;;;;;;3.80;1.70;;;;;;;7.24;100.00;96492.44;5037368;28;20212;-66
2023/11/17 11:08:53;;;;;;;3.07;1.70;;;;;;;7.46;100.00;96498.06;5038292;28;20573;-65
2023/11/17 11:11:21;;;;;;;2.63;1.70;;;;;;;7.51;100.00;96492.34;5037606;28;20270;-65
2023/11/17 11:13:54;;;;;;;3.43;1.90;;;;;;;7.61;100.00;96488.69;5037299;28;20225;-66
2023/11/17 11:16:20;;;;;;;7.67;3.50;;;;;;;7.53;100.00;96495.66;5038222;28;20229;-65
2023/11/17 11:18:52;;;;;;;6.80;2.30;;;;;;;7.83;100.00;96482.94;5037351;28;20231;-65
2023/11/17 11:21:19;;;;;;;2.37;1.77;;;;;;;7.66;100.00;96481.19;5037172;28;20569;-65
2023/11/17 11:23:46;;;;;;;2.67;1.60;;;;;;;7.54;100.00;96492.06;5037908;28;20229;-66
2023/11/17 11:26:14;;;;;;;2.47;1.70;;;;;;;7.35;100.00;96490.44;5037520;28;20996;-66
2023/11/17 11:28:42;;;;;;;4.17;2.17;;;;;;;7.57;100.00;96482.06;5037606;28;20212;-66
2023/11/17 11:31:11;;;;;;;7.20;3.40;;;;;;;7.65;100.00;96484.78;5037341;28;20201;-66
2023/11/17 11:33:37;;;;;;;9.10;3.33;;;;;;;7.75;100.00;96490.75;5037143;28;20216;-65
2023/11/17 11:36:06;;;;;;;6.87;2.80;;;;;;;7.99;100.00;96493.50;5036854;28;20216;-67